Historyczne dane pomiarowe

Dodano dane terminowe – wersja testowa.

Dane z okresu 1951-2019

Wersja bazy: 1.34 [2019-03-16, lista zmian], aktualizacja planowana na 2019-04-15

Dane meteo z obszaru Polski uzyskane na podstawie danych udostępnionych przez Instytut Meteorologii i Gospodarki Wodnej – Państwowy Instytut Badawczy.

 

Wybierz Datę:    

       

TemperaturaWilgotnośćWiatrCiśnienieOpadyŚniegCzas trwania zjawisk
 Stacja t tx tn tng RH VA  wxwx mslp ppp RRR   cm mm wxwxwxwxwxwxwx
1987-08-14 9.9 16.9 2.9 0.0 73.5- 4.3 4.0---- 0.0------------
1987-08-13 10.3 15.9 5.0 0.5 77.3- 4.3 2.0---- 0.0------------
1987-08-12 9.8 15.4 5.1 0.5 77.8- 4.3 1.3---- 0.0------------
1987-08-11 11.3 14.3 9.7 5.4 80.5- 5.7 1.3---- 0.5------------
1987-08-10 14.0 18.0 12.7 8.9 69.3- 6.7 2.7---- 5.9------------
1987-08-09 14.8 21.2 5.8 6.4 57.3- 2.0 3.3---- 0.0------------
1987-08-08 12.5 17.5 5.0 3.0 66.8- 3.0 4.0---- 0.0------------
1987-08-07 8.3 12.6 2.5 2.5 80.5- 6.0 2.7---- 0.0------------
1987-08-06 8.6 12.0 6.9 5.4 80.0- 7.0 2.7---- 3.0------------
1987-08-05 9.8 13.8 6.9 4.5 82.5- 4.3 2.0---- 0.4------------
1987-08-04 14.2 16.6 9.7 5.4 80.8- 7.0 3.3---- 1.6------------
1987-08-03 13.2 17.9 9.9 7.4 77.3- 5.3 2.0---- 0.0------------
1987-08-02 12.7 16.9 10.4 8.4 76.0- 5.3 1.3---- 19.7------------
1987-08-01 12.1 18.9 5.4 1.0 82.3- 4.3 0.7---- 3.5------------
1987-07-31 15.0 18.9 10.9 11.4 82.8- 8.0 2.7---- 4.7------------
1987-07-30 16.3 21.9 10.9 6.4 89.8- 4.3 4.0---- 1.0------------
1987-07-29 11.5 16.9 6.9 3.0 79.8- 6.3 2.0---- 0.0------------
1987-07-28 10.9 13.3 9.9 8.4 85.0- 8.0 2.7---- 3.8------------
1987-07-27 9.7 13.8 5.9 4.5 78.5- 5.7 4.0---- 1.8------------
1987-07-26 11.9 17.9 7.9 6.9100.0- 8.0 0.0---- 18.8------------
1987-07-25 16.4 22.9 11.4 7.4 82.5- 4.7 1.3---- 0.2------------
1987-07-24 18.2 25.8 14.4 10.4 87.8- 3.0 1.3---- 0.7------------
1987-07-23 17.5 23.9 9.9 6.4 87.0- 4.7 2.7---- 13.5------------
1987-07-22 17.6 21.9 15.5 10.9 88.5- 5.3 3.3---- 0.0------------
1987-07-21 17.7 22.9 12.4 1.0 95.3- 3.3 1.3---- 0.0------------
1987-07-20 19.4 22.9 16.5 11.4 93.5- 4.3 3.3---- 0.0------------
1987-07-19 22.1 27.5 17.0 11.9 85.5- 2.0 4.0---- 3.0------------
1987-07-18 22.4 26.8 17.5 10.9 90.0- 2.0 2.7---- 0.0------------
1987-07-17 21.5 26.8 14.0 10.4 78.3- 4.3 5.3---- 0.0------------
1987-07-16 17.2 24.1 11.9 6.5 94.3- 6.7 2.7---- 43.0------------
1987-07-15 15.5 22.6 6.9 2.0 89.5- 4.0 2.7---- 0.0------------
1987-07-14 14.4 18.9 9.9 4.5 90.0- 3.7 2.7---- 0.0------------
1987-07-13 16.8 22.9 11.5 6.9 90.3- 4.3 4.0---- 0.0------------
1987-07-12 20.1 25.9 10.9 5.0 81.3- 2.0 4.7---- 7.0------------
1987-07-11 14.8 22.1 5.9 1.5 86.5- 2.0 4.7---- 0.0------------
1987-07-10 11.6 17.4 7.4 2.5 87.5- 4.7 2.7---- 0.0------------
1987-07-09 16.3 21.9 12.9 10.4 85.3- 7.0 4.0---- 4.4------------
1987-07-08 19.3 26.3 9.4 3.0 77.8- 2.0 4.0---- 0.0------------
1987-07-07 16.7 24.4 6.9 0.5 72.8- 1.0 4.0---- 0.0------------
1987-07-06 14.7 19.4 6.9 2.0 75.8- 4.7 4.0---- 0.0------------
1987-07-05 12.8 17.6 11.9 7.4 93.8- 7.3 2.7---- 3.0------------
1987-07-04 17.0 20.9 11.9 6.4 78.5- 2.0 2.7---- 0.0------------
1987-07-03 15.6 18.4 13.4 12.9 89.0- 6.0 2.7---- 0.0------------
1987-07-02 17.5 25.3 13.9 8.9 94.3- 8.0 0.0---- 0.5------------
1987-07-01 22.8 28.8 15.3 9.9 68.3- 2.0 4.0---- 0.0------------
1987-06-30 19.9 27.3 12.2 6.9 82.8- 2.0 2.0---- 0.0------------
1987-06-29 19.2 22.9 14.4 9.9 79.5- 5.0 1.3---- 0.0------------
1987-06-28 17.5 22.9 12.9 8.9 77.0- 2.0 3.3---- 0.4------------
1987-06-27 15.9 18.9 13.9 12.4 86.8- 6.3 2.7---- 1.1------------
1987-06-26 14.1 21.9 4.5 -0.5 71.3- 4.0 5.3---- 15.8------------
1987-06-25 11.9 14.9 10.9 8.9 82.8- 5.7 3.3---- 0.4------------
1987-06-24 13.4 17.9 8.9 3.5 74.3- 5.0 2.0---- 10.0------------
1987-06-23 13.7 17.9 10.4 10.4 76.8- 5.7 4.0---- 0.0------------
1987-06-22 12.7 17.3 9.9 5.9 92.0- 7.0 2.0---- 9.2------------
1987-06-21 12.1 18.9 6.4 1.5 83.0- 4.3 2.7---- 4.3------------
1987-06-20 13.3 19.9 5.4 -1.0 68.8- 4.3 2.0---- 5.8------------
1987-06-19 9.1 15.9 3.8 -1.0 72.0- 3.0 2.7---- 0.0------------
1987-06-18 7.3 12.6 3.5 -2.0 85.0- 5.7 4.0---- 3.4------------
1987-06-17 7.4 12.4 3.5 -0.5 87.8- 7.0 2.7---- 1.7------------
1987-06-16 12.8 22.9 8.9 8.9 80.8- 7.0 2.7---- 12.6------------
471.1 ms

 

Źródłem pochodzenia danych jest Instytut Meteorologii i Gospodarki Wodnej – Państwowy Instytut Badawczy. Dane Instytutu Meteorologii i Gospodarki Wodnej – Państwowego Instytutu Badawczego zostały przetworzone.

Dane źródłowe można odnaleźć na stronie https://dane.imgw.pl